Aeroporto :
LOGIN :

Iscrizione | Disclaimer

   EN    FR    IT 

 










Sommario :    VFR   VFR Marginale   IFR   IFR Intensivo   IFR Molto Intensivo
Visibilità : 
Base nubi : 
>= 8 km
>= 3000ft
5 / 8 km
1000 / 3000 ft
1500m / 5 km
500 / 1000 ft
800 / 1500m
200 / 500 ft
< 800m
< 200 ft
Simboli :   Temporali  Nebbia  Neve Forte  Precipitazioni Forti  Vento > 20 kt
SIGMETs :   Varie  Temporali  Ghiacco  Turbolenza  Onda orograficha  Ceneri Vulcaniche







- Altitudine del aeroporto : 218 ft
- Codice IATA : LBG
- Carte del aeroporto


LFPB - Paris / Le Bourget

ULTIMO METAR :
  • 161330Z AUTO VRB04KT CAVOK 25/09 Q1017 NOSIG

METARs OBSOLETI :
  • 161300Z AUTO 18005KT 140V210 CAVOK 25/09 Q1017 NOSIG
  • 161230Z AUTO 18005KT 140V230 CAVOK 25/09 Q1017 NOSIG
  • 161200Z AUTO 17005KT 110V220 CAVOK 25/09 Q1017 NOSIG
  • 161130Z AUTO 21004KT 140V300 CAVOK 24/09 Q1017 NOSIG
  • 161100Z AUTO VRB03KT CAVOK 24/08 Q1018 NOSIG

TAF TAF LFPB
Valido dal 16 a 12 ore il 17 a 12 ore UTC


161100Z 1612/1712 18005KT CAVOK
BECMG 1617/1620 28005KT
PROB30 1703/1708 3000 BR
ATIS : +33 1 48 62 43 92
Nessun NOTAM noto per questo aeroporto.



MetMap, La meteo Aeronautica in un colpo d'occhio ! - Copyright ORBIFLY Dicembre 2007 - Disclaimer

ORBIFLY MET'MAP TEAM :

Programmazione e sviluppo : Alexandra Zaïnal
Concezione e sviluppo : Baudouin d'Aumeries
Co-Programmazione e sviluppo : Marc-Olivier Méhu
Supporto tecnico e logistico : Manuel Goepfert
Aiuto per la traduzione : Arnaldo La Scala

Contatto : metmap@orbifly.com




FONTI E CREDITI :

   NOAA